This is the latest recevied weather packets stored in our database for station/object EA1AHA-13. If no packets are shown the sender has not sent any weather packets the latest 10 day(s).
| Time | Temp. | Humidity | Pressure | Rain* | Wind** | Luminosity | Snow |
|---|---|---|---|---|---|---|---|
| 1777554366 | 17.78° C | 77% | 1015.1 hPa | 0 mm | - | - | - |
| 1777553790 | 18.33° C | 75% | 1015.1 hPa | 0 mm | - | - | - |
| 1777553165 | 18.33° C | 75% | 1015 hPa | 0 mm | - | - | - |
| 1777552590 | 18.89° C | 72% | 1014.7 hPa | 0 mm | - | - | - |
| 1777551965 | 18.89° C | 73% | 1014.7 hPa | 0 mm | - | - | - |
| 1777551390 | 18.89° C | 73% | 1014.7 hPa | 0 mm | - | - | - |
| 1777550766 | 18.89° C | 73% | 1014.3 hPa | 0 mm | - | - | - |
| 1777550190 | 18.89° C | 72% | 1014.7 hPa | 0 mm | - | - | - |
| 1777549566 | 18.33° C | 74% | 1014.8 hPa | 0 mm | - | - | - |
| 1777548990 | 18.33° C | 75% | 1014.9 hPa | 0 mm | - | - | - |
| 1777548365 | 18.89° C | 73% | 1014.7 hPa | 0 mm | - | - | - |
| 1777547790 | 17.78° C | 78% | 1014.7 hPa | 0 mm | - | - | - |
| 1777547165 | 17.78° C | 78% | 1014.5 hPa | 0 mm | - | - | - |
| 1777546590 | 17.22° C | 77% | 1014.4 hPa | 0 mm | - | - | - |
| 1777545966 | 17.78° C | 78% | 1014.3 hPa | 0 mm | - | - | - |
| 1777545390 | 17.78° C | 79% | 1014.5 hPa | 0 mm | - | - | - |
| 1777544814 | 17.78° C | 79% | 1014.2 hPa | 0 mm | - | - | - |
| 1777543990 | 17.78° C | 79% | 1014.2 hPa | 0 mm | - | - | - |
| 1777543693 | 17.78° C | 79% | 1014 hPa | 0 mm | - | - | - |
| 1777542990 | 17.78° C | 81% | 1014.1 hPa | 0 mm | - | - | - |
| 1777542366 | 17.78° C | 81% | 1014 hPa | 0 mm | - | - | - |
| 1777541791 | 18.33° C | 81% | 1013.6 hPa | 0 mm | - | - | - |
| 1777541166 | 17.78° C | 81% | 1013.5 hPa | 0 mm | - | - | - |
| 1777540590 | 17.22° C | 82% | 1013.3 hPa | 0 mm | - | - | - |
| 1777539966 | 17.78° C | 82% | 1013.5 hPa | 0 mm | - | - | - |
* Rain latest hour (hover to see other rain measurements)
** Current wind speed in m/s (hover to see current wind gust speed)